createdAt,value
2016-11-07T00:00:20.107Z,3.99
2016-11-07T00:01:33.813Z,4.07
2016-11-07T00:02:47.876Z,4.04
2016-11-07T00:04:02.283Z,4.03
2016-11-07T00:05:16.400Z,4.06
2016-11-07T00:06:30.076Z,4.04
2016-11-07T00:07:43.818Z,3.99
2016-11-07T00:08:57.761Z,3.95
2016-11-07T00:10:11.562Z,3.96
2016-11-07T00:11:25.753Z,4.03
2016-11-07T00:12:39.370Z,4.12
2016-11-07T00:13:53.042Z,4.09
2016-11-07T00:15:07.260Z,4.07
2016-11-07T00:16:21.077Z,4.14
2016-11-07T00:17:35.018Z,4.2
2016-11-07T00:18:48.852Z,4.12
2016-11-07T00:20:02.606Z,4.12
2016-11-07T00:21:16.764Z,4.09
2016-11-07T00:22:30.530Z,4.21
2016-11-07T00:23:44.494Z,4.28
2016-11-07T00:24:58.193Z,4.24
2016-11-07T00:26:11.772Z,4.25
2016-11-07T00:27:25.985Z,4.28
2016-11-07T00:28:39.639Z,4.28
2016-11-07T00:29:53.090Z,4.36
2016-11-07T00:31:07.411Z,4.43
2016-11-07T00:32:21.005Z,4.43
2016-11-07T00:33:35.299Z,4.4
2016-11-07T00:34:49.068Z,4.42
2016-11-07T00:36:02.959Z,4.39
2016-11-07T00:37:46.523Z,4.46
2016-11-07T00:41:58.051Z,4.42
2016-11-07T00:43:11.968Z,4.39
2016-11-07T00:46:38.852Z,4.48
2016-11-07T00:48:07.545Z,4.43
2016-11-07T00:50:05.976Z,4.34
2016-11-07T00:52:35.951Z,4.27
2016-11-07T00:54:04.824Z,4.34
2016-11-07T00:58:01.581Z,4.53
2016-11-07T00:59:30.049Z,4.49
2016-11-07T01:01:28.874Z,4.38
2016-11-07T01:03:12.108Z,4.46
2016-11-07T01:05:11.081Z,4.42
2016-11-07T01:08:52.545Z,4.56
2016-11-07T01:10:50.697Z,4.5
2016-11-07T01:12:05.141Z,4.52
2016-11-07T01:13:33.737Z,4.52
2016-11-07T01:16:06.121Z,4.53
2016-11-07T01:20:21.153Z,4.58
2016-11-07T01:21:34.888Z,4.64
2016-11-07T01:23:03.651Z,4.57
2016-11-07T01:24:32.209Z,4.68
2016-11-07T01:26:01.307Z,4.57
2016-11-07T01:29:57.985Z,4.61
2016-11-07T01:31:41.484Z,4.63
2016-11-07T01:33:09.812Z,4.66
2016-11-07T01:34:23.884Z,4.7
2016-11-07T01:36:22.127Z,4.63
2016-11-07T01:37:36.007Z,4.71
2016-11-07T01:38:50.062Z,4.64
2016-11-07T01:40:18.849Z,4.58
2016-11-07T01:41:47.429Z,4.53
2016-11-07T01:43:01.039Z,4.56
2016-11-07T01:44:15.264Z,4.6
2016-11-07T01:45:43.988Z,4.6
2016-11-07T01:47:27.391Z,4.61
2016-11-07T01:48:55.881Z,4.56
2016-11-07T01:50:39.428Z,4.53
2016-11-07T01:51:53.470Z,4.52
2016-11-07T01:53:07.103Z,4.64
2016-11-07T01:54:20.836Z,4.66
2016-11-07T01:55:34.963Z,4.56
2016-11-07T01:56:49.049Z,4.63
2016-11-07T01:58:02.814Z,4.63
2016-11-07T01:59:17.271Z,4.52
2016-11-07T02:00:31.076Z,4.53
2016-11-07T02:01:59.928Z,4.5
2016-11-07T02:03:13.676Z,4.42
2016-11-07T02:04:27.770Z,4.27
2016-11-07T02:07:25.202Z,4.49
2016-11-07T02:10:52.082Z,4.4
2016-11-07T02:12:06.052Z,4.42
2016-11-07T02:13:20.103Z,4.48
2016-11-07T02:14:33.913Z,4.5
2016-11-07T02:15:47.995Z,4.56
2016-11-07T02:17:17.058Z,4.56
2016-11-07T02:19:00.712Z,4.67
2016-11-07T02:20:14.527Z,4.68
2016-11-07T02:21:28.593Z,4.63
2016-11-07T02:22:57.830Z,4.6
2016-11-07T02:24:26.750Z,4.56
2016-11-07T02:26:39.711Z,4.52
2016-11-07T02:28:25.618Z,4.53
2016-11-07T02:29:39.389Z,4.52
2016-11-07T02:31:23.012Z,4.57
2016-11-07T02:32:51.685Z,4.5
2016-11-07T02:34:35.361Z,4.52
2016-11-07T02:35:49.419Z,4.53
2016-11-07T02:37:18.210Z,4.63
2016-11-07T02:42:28.831Z,4.53
2016-11-07T02:43:57.438Z,4.5
2016-11-07T02:45:25.989Z,4.57
2016-11-07T02:48:08.956Z,4.57
2016-11-07T02:49:23.398Z,4.61
2016-11-07T02:52:50.418Z,4.63
2016-11-07T02:54:04.193Z,4.67
2016-11-07T02:55:33.018Z,4.63
2016-11-07T02:56:46.814Z,4.6
2016-11-07T03:01:27.834Z,4.58
2016-11-07T03:02:41.629Z,4.53
2016-11-07T03:03:55.711Z,4.52
2016-11-07T03:06:53.378Z,4.57
2016-11-07T03:08:36.996Z,4.61
2016-11-07T03:11:48.923Z,4.52
2016-11-07T03:13:17.781Z,4.61
2016-11-07T03:14:31.565Z,4.57
2016-11-07T03:15:45.630Z,4.66
2016-11-07T03:16:59.455Z,4.56
2016-11-07T03:20:41.701Z,4.5
2016-11-07T03:21:55.578Z,4.63
2016-11-07T03:23:09.737Z,4.56
2016-11-07T03:24:23.526Z,4.71
2016-11-07T03:25:52.133Z,4.74
2016-11-07T03:27:06.294Z,4.71
2016-11-07T03:30:18.537Z,4.76
2016-11-07T03:33:15.804Z,4.84
2016-11-07T03:34:45.499Z,4.95
2016-11-07T03:36:43.645Z,4.84
2016-11-07T03:38:41.788Z,4.66
2016-11-07T03:42:38.626Z,4.82
2016-11-07T03:43:52.402Z,4.82
2016-11-07T03:48:18.790Z,4.56
2016-11-07T03:49:32.662Z,4.66
2016-11-07T03:53:15.077Z,4.64
2016-11-07T03:54:43.689Z,4.52
2016-11-07T03:56:41.878Z,4.58
2016-11-07T03:57:56.041Z,4.64
2016-11-07T03:59:24.668Z,4.7
2016-11-07T04:00:39.069Z,4.78
2016-11-07T04:04:08.113Z,4.63
2016-11-07T04:05:21.957Z,4.67
2016-11-07T04:08:34.515Z,4.75
2016-11-07T04:09:48.431Z,4.66
2016-11-07T04:11:02.210Z,4.6
2016-11-07T04:12:16.585Z,4.6
2016-11-07T04:13:45.492Z,4.63
2016-11-07T04:15:28.940Z,4.53
2016-11-07T04:16:57.354Z,4.48
2016-11-07T04:18:11.796Z,4.56
2016-11-07T04:19:25.596Z,4.58
2016-11-07T04:20:39.393Z,4.57
2016-11-07T04:22:08.060Z,4.58
2016-11-07T04:23:21.851Z,4.68
2016-11-07T04:24:36.379Z,4.61
2016-11-07T04:25:50.175Z,4.6
2016-11-07T04:27:03.989Z,4.48
2016-11-07T04:28:18.069Z,4.57
2016-11-07T04:29:32.203Z,4.48
2016-11-07T04:30:46.581Z,4.58
2016-11-07T04:32:00.694Z,4.6
2016-11-07T04:33:14.388Z,4.52
2016-11-07T04:34:28.215Z,4.5
2016-11-07T04:35:42.337Z,4.36
2016-11-07T04:36:56.698Z,4.46
2016-11-07T04:38:11.155Z,4.5
2016-11-07T04:39:25.337Z,4.49
2016-11-07T04:40:39.423Z,4.58
2016-11-07T04:41:53.258Z,4.45
2016-11-07T04:43:07.646Z,4.48
2016-11-07T04:44:21.627Z,4.48
2016-11-07T04:45:35.373Z,4.39
2016-11-07T04:46:49.230Z,4.38
2016-11-07T04:48:03.088Z,4.34
2016-11-07T04:49:17.436Z,4.45
2016-11-07T04:50:31.258Z,4.42
2016-11-07T04:51:45.036Z,4.38
2016-11-07T04:52:58.833Z,4.39
2016-11-07T04:54:12.614Z,4.43
2016-11-07T04:55:26.996Z,4.46
2016-11-07T04:56:40.841Z,4.34
2016-11-07T04:57:55.033Z,4.28
2016-11-07T04:59:09.227Z,4.27
2016-11-07T05:00:23.040Z,4.46
2016-11-07T05:01:37.524Z,4.45
2016-11-07T05:02:51.531Z,4.34
2016-11-07T05:04:05.324Z,4.32
2016-11-07T05:05:19.112Z,4.27
2016-11-07T05:06:32.894Z,4.42
2016-11-07T05:07:47.279Z,4.28
2016-11-07T05:09:01.049Z,4.34
2016-11-07T05:10:14.826Z,4.36
2016-11-07T05:11:28.875Z,4.25
2016-11-07T05:12:42.646Z,4.43
2016-11-07T05:13:56.991Z,4.38
2016-11-07T05:15:10.820Z,4.38
2016-11-07T05:16:24.617Z,4.3
2016-11-07T05:17:38.434Z,4.43
2016-11-07T05:18:52.228Z,4.28
2016-11-07T05:20:06.625Z,4.22
2016-11-07T05:21:20.463Z,4.27
2016-11-07T05:22:36.498Z,4.24
2016-11-07T05:23:50.492Z,4.38
2016-11-07T05:25:04.436Z,4.27
2016-11-07T05:26:18.908Z,4.25
2016-11-07T05:27:33.235Z,4.32
2016-11-07T05:28:47.184Z,4.3
2016-11-07T05:30:01.635Z,4.34
2016-11-07T05:31:30.885Z,4.48
2016-11-07T05:33:00.011Z,4.53
2016-11-07T05:34:15.454Z,4.5
2016-11-07T05:35:30.185Z,4.5
2016-11-07T05:36:44.031Z,4.53
2016-11-07T05:37:58.555Z,4.6
2016-11-07T05:39:12.517Z,4.6
2016-11-07T05:40:41.317Z,4.64
2016-11-07T05:41:55.574Z,4.68
2016-11-07T05:43:10.098Z,4.78
2016-11-07T05:44:24.375Z,4.84
2016-11-07T05:48:06.393Z,4.86
2016-11-07T05:49:20.485Z,4.83
2016-11-07T05:51:04.203Z,4.92
2016-11-07T05:53:31.897Z,4.78
2016-11-07T05:56:14.739Z,4.66
2016-11-07T05:57:43.646Z,4.64
2016-11-07T05:58:57.475Z,4.84
2016-11-07T06:00:26.281Z,4.84
2016-11-07T06:02:09.759Z,4.9
2016-11-07T06:06:36.147Z,4.78
2016-11-07T06:07:49.969Z,4.82
2016-11-07T06:09:18.555Z,4.92
2016-11-07T06:10:47.186Z,4.79
2016-11-07T06:12:01.551Z,4.67
2016-11-07T06:13:15.495Z,4.74
2016-11-07T06:14:29.355Z,4.67
2016-11-07T06:15:43.348Z,4.6
2016-11-07T06:16:57.161Z,4.64
2016-11-07T06:19:54.996Z,4.66
2016-11-07T06:21:08.801Z,4.63
2016-11-07T06:22:52.168Z,4.52
2016-11-07T06:24:06.676Z,4.53
2016-11-07T06:25:20.482Z,4.53
2016-11-07T06:26:34.273Z,4.53
2016-11-07T06:27:48.087Z,4.53
2016-11-07T06:29:01.921Z,4.48
2016-11-07T06:30:31.050Z,4.5
2016-11-07T06:33:28.229Z,4.49
2016-11-07T06:34:56.805Z,4.61
2016-11-07T06:36:25.984Z,4.5
2016-11-07T06:37:39.804Z,4.53
2016-11-07T06:38:53.579Z,4.5
2016-11-07T06:40:22.783Z,4.48
2016-11-07T06:41:36.597Z,4.58
2016-11-07T06:45:03.711Z,4.49
2016-11-07T06:46:17.462Z,4.56
2016-11-07T06:47:31.801Z,4.5
2016-11-07T06:49:30.029Z,4.48
2016-11-07T06:51:01.342Z,4.53
2016-11-07T06:52:45.054Z,4.64
2016-11-07T06:53:59.576Z,4.52
2016-11-07T06:55:13.008Z,4.5
2016-11-07T06:56:26.430Z,4.5
2016-11-07T06:57:40.094Z,4.48
2016-11-07T06:58:54.037Z,4.53
2016-11-07T07:00:08.475Z,4.46
2016-11-07T07:01:22.294Z,4.43
2016-11-07T07:02:35.976Z,4.46
2016-11-07T07:03:50.335Z,4.56
2016-11-07T07:05:19.470Z,4.56
2016-11-07T07:06:33.960Z,4.57
2016-11-07T07:07:47.578Z,4.63
2016-11-07T07:09:01.806Z,4.64
2016-11-07T07:10:15.694Z,4.61
2016-11-07T07:11:29.384Z,4.63
2016-11-07T07:12:43.699Z,4.66
2016-11-07T07:13:57.499Z,4.74
2016-11-07T07:15:11.832Z,4.68
2016-11-07T07:16:25.796Z,4.74
2016-11-07T07:17:39.885Z,4.7
2016-11-07T07:18:53.947Z,4.82
2016-11-07T07:20:08.004Z,4.84
2016-11-07T07:21:22.249Z,4.82
2016-11-07T07:22:35.886Z,4.79
2016-11-07T07:25:18.467Z,4.82
2016-11-07T07:26:32.393Z,4.84
2016-11-07T07:27:46.241Z,4.82
2016-11-07T07:29:00.118Z,4.82
2016-11-07T07:30:13.976Z,4.92
2016-11-07T07:31:27.936Z,4.86
2016-11-07T07:32:44.303Z,4.92
2016-11-07T07:33:58.636Z,5.04
2016-11-07T07:35:12.641Z,5
2016-11-07T07:36:26.865Z,5.01
2016-11-07T07:37:40.681Z,5.12
2016-11-07T07:38:54.680Z,5
2016-11-07T07:40:08.477Z,4.98
2016-11-07T07:41:22.331Z,5
2016-11-07T07:42:36.442Z,5.04
2016-11-07T07:43:50.579Z,4.95
2016-11-07T07:45:04.707Z,5.02
2016-11-07T07:46:18.634Z,5.05
2016-11-07T07:47:32.751Z,5.01
2016-11-07T07:48:46.507Z,4.95
2016-11-07T07:50:00.541Z,4.97
2016-11-07T07:51:14.338Z,4.97
2016-11-07T07:52:28.220Z,4.97
2016-11-07T07:53:41.805Z,5.15
2016-11-07T07:54:55.661Z,5.19
2016-11-07T07:56:09.964Z,5.19
2016-11-07T07:57:23.821Z,5.19
2016-11-07T07:58:37.946Z,5.23
2016-11-07T07:59:52.494Z,5.19
2016-11-07T08:01:07.774Z,5.16
2016-11-07T08:02:21.874Z,5.15
2016-11-07T08:03:35.815Z,5.15
2016-11-07T08:04:49.678Z,5.08
2016-11-07T08:06:03.730Z,5.1
2016-11-07T08:07:17.553Z,5.08
2016-11-07T08:08:34.108Z,5.12
2016-11-07T08:09:48.136Z,5.16
2016-11-07T08:11:02.099Z,5.16
2016-11-07T08:12:16.315Z,5.16
2016-11-07T08:13:30.097Z,5.19
2016-11-07T08:14:44.230Z,5.25
2016-11-07T08:15:58.005Z,5.25
2016-11-07T08:17:12.262Z,5.2
2016-11-07T08:18:26.600Z,5.07
2016-11-07T08:19:40.661Z,5.07
2016-11-07T08:20:54.838Z,5.08
2016-11-07T08:22:08.524Z,5.1
2016-11-07T08:23:22.097Z,4.92
2016-11-07T08:24:36.202Z,5.05
2016-11-07T08:25:50.246Z,5.05
2016-11-07T08:27:04.527Z,5.13
2016-11-07T08:28:18.470Z,5.15
2016-11-07T08:29:32.409Z,5.19
2016-11-07T08:30:46.263Z,5.19
2016-11-07T08:32:00.436Z,5.16
2016-11-07T08:33:14.680Z,5.16
2016-11-07T08:34:28.359Z,5.15
2016-11-07T08:35:42.264Z,5.2
2016-11-07T08:36:56.101Z,5.15
2016-11-07T08:38:09.950Z,5.19
2016-11-07T08:39:24.381Z,5.36
2016-11-07T08:40:38.204Z,5.25
2016-11-07T08:41:51.912Z,5.28
2016-11-07T08:43:05.627Z,5.29
2016-11-07T08:44:19.392Z,5.16
2016-11-07T08:45:33.700Z,5.2
2016-11-07T08:46:48.139Z,5.36
2016-11-07T08:48:01.937Z,5.34
2016-11-07T08:49:15.605Z,5.44
2016-11-07T08:50:29.379Z,5.44
2016-11-07T08:51:43.397Z,5.46
2016-11-07T08:52:57.734Z,5.4
2016-11-07T08:54:11.366Z,5.54
2016-11-07T08:55:25.129Z,5.51
2016-11-07T08:56:38.807Z,5.56
2016-11-07T08:57:53.281Z,5.61
2016-11-07T08:59:07.061Z,5.61
2016-11-07T09:00:21.163Z,5.67
2016-11-07T09:01:34.838Z,5.73
2016-11-07T09:02:48.576Z,5.8
2016-11-07T09:04:02.477Z,5.74
2016-11-07T09:05:16.212Z,5.87
2016-11-07T09:06:30.154Z,5.84
2016-11-07T09:07:44.136Z,5.88
2016-11-07T09:08:57.861Z,5.92
2016-11-07T09:10:11.889Z,6.06
2016-11-07T09:11:25.607Z,6.2
2016-11-07T09:12:40.406Z,6.19
2016-11-07T09:13:54.096Z,6.19
2016-11-07T09:15:08.113Z,6.28
2016-11-07T09:16:22.013Z,6.05
2016-11-07T09:17:35.674Z,5.99
2016-11-07T09:18:49.259Z,6.05
2016-11-07T09:20:03.107Z,6.12
2016-11-07T09:21:17.015Z,6.13
2016-11-07T09:22:30.963Z,6.16
2016-11-07T09:23:44.911Z,6.29
2016-11-07T09:25:01.109Z,6.28
2016-11-07T09:26:14.748Z,6.19
2016-11-07T09:27:28.577Z,6.09
2016-11-07T09:28:43.122Z,6.19
2016-11-07T09:30:12.195Z,6.2
2016-11-07T09:31:25.879Z,6.31
2016-11-07T09:32:39.559Z,6.34
2016-11-07T09:33:54.149Z,6.43
2016-11-07T09:35:08.651Z,6.36
2016-11-07T09:36:22.424Z,6.43
2016-11-07T09:37:36.468Z,6.41
2016-11-07T09:38:50.310Z,6.41
2016-11-07T09:40:04.762Z,6.46
2016-11-07T09:41:18.928Z,6.43
2016-11-07T09:42:32.715Z,6.47
2016-11-07T09:43:46.594Z,6.46
2016-11-07T09:45:00.982Z,6.56
2016-11-07T09:46:14.888Z,6.41
2016-11-07T09:47:28.712Z,6.36
2016-11-07T09:48:42.462Z,6.43
2016-11-07T09:49:56.270Z,6.62
2016-11-07T09:51:25.427Z,6.64
2016-11-07T09:52:39.321Z,6.67
2016-11-07T09:53:54.007Z,6.83
2016-11-07T09:55:07.774Z,6.74
2016-11-07T09:56:22.263Z,6.6
2016-11-07T09:57:36.341Z,6.68
2016-11-07T09:58:50.721Z,6.65
2016-11-07T10:00:04.329Z,6.39
2016-11-07T10:01:18.067Z,6.46
2016-11-07T10:02:31.897Z,6.57
2016-11-07T10:03:45.577Z,6.6
2016-11-07T10:05:00.473Z,6.68
2016-11-07T10:06:14.173Z,6.64
2016-11-07T10:07:28.317Z,6.71
2016-11-07T10:08:42.115Z,6.74
2016-11-07T10:09:55.919Z,6.83
2016-11-07T10:11:10.181Z,6.72
2016-11-07T10:12:23.929Z,6.72
2016-11-07T10:13:37.910Z,6.82
2016-11-07T10:15:21.324Z,6.82
2016-11-07T10:16:35.365Z,6.74
2016-11-07T10:18:33.484Z,6.59
2016-11-07T10:20:01.975Z,6.64
2016-11-07T10:23:58.681Z,6.56
2016-11-07T10:25:27.564Z,6.56
2016-11-07T10:26:56.026Z,6.68
2016-11-07T10:28:24.823Z,6.72
2016-11-07T10:29:39.271Z,6.87
2016-11-07T10:31:07.549Z,6.77
2016-11-07T10:32:35.822Z,6.82
2016-11-07T10:39:00.115Z,6.92
2016-11-07T10:44:54.289Z,6.87
2016-11-07T10:46:37.769Z,6.95
2016-11-07T10:48:06.657Z,7.03
2016-11-07T10:49:35.231Z,6.97
2016-11-07T10:51:03.686Z,6.97
2016-11-07T10:53:04.468Z,7.08
2016-11-07T10:54:33.170Z,7.31
2016-11-07T10:56:01.775Z,7.28
2016-11-07T10:57:15.596Z,7.5
2016-11-07T10:58:59.142Z,7.48
2016-11-07T11:00:27.722Z,7.53
2016-11-07T11:01:41.886Z,7.48
2016-11-07T11:03:25.244Z,7.53
2016-11-07T11:04:39.460Z,7.44
2016-11-07T11:06:23.081Z,7.36
2016-11-07T11:09:35.221Z,7.33
2016-11-07T11:11:48.500Z,7.39
2016-11-07T11:18:14.925Z,7.41
2016-11-07T11:24:29.997Z,7.69
2016-11-07T11:25:44.071Z,7.78
2016-11-07T11:29:55.055Z,7.59
2016-11-07T11:31:23.946Z,7.55
2016-11-07T11:32:52.856Z,7.4
2016-11-07T11:34:21.473Z,7.47
2016-11-07T11:35:35.188Z,7.39
2016-11-07T11:36:49.053Z,7.4
2016-11-07T11:38:47.403Z,7.46
2016-11-07T11:40:15.835Z,7.39
2016-11-07T11:41:29.488Z,7.46
2016-11-07T11:42:43.548Z,7.51
2016-11-07T11:43:57.693Z,7.48
2016-11-07T11:45:11.878Z,7.39
2016-11-07T11:46:25.520Z,7.37
2016-11-07T11:47:39.323Z,7.39
2016-11-07T11:51:21.413Z,7.36
2016-11-07T11:52:35.644Z,7.39
2016-11-07T11:53:49.337Z,7.29
2016-11-07T11:55:03.231Z,7.25
2016-11-07T11:56:31.868Z,7.22
2016-11-07T11:58:00.647Z,7.14
2016-11-07T11:59:44.305Z,7.23
2016-11-07T12:00:58.136Z,7.31
2016-11-07T12:05:09.795Z,7.5
2016-11-07T12:06:23.686Z,7.53
2016-11-07T12:08:07.369Z,7.67
2016-11-07T12:11:48.864Z,7.78
2016-11-07T12:13:18.117Z,7.75
2016-11-07T12:14:32.030Z,7.81
2016-11-07T12:16:00.689Z,7.78
2016-11-07T12:17:43.967Z,7.9
2016-11-07T12:21:10.855Z,7.83
2016-11-07T12:22:24.770Z,7.84
2016-11-07T12:23:38.411Z,7.91
2016-11-07T12:25:21.913Z,7.69
2016-11-07T12:31:17.020Z,7.56
2016-11-07T12:33:00.402Z,7.48
2016-11-07T12:34:14.620Z,7.51
2016-11-07T12:35:30.748Z,7.43
2016-11-07T12:36:44.584Z,7.5
2016-11-07T12:37:59.025Z,7.4
2016-11-07T12:43:24.360Z,7.62
2016-11-07T12:44:38.416Z,7.61
2016-11-07T12:52:31.536Z,7.55
2016-11-07T12:56:57.584Z,7.61
2016-11-07T13:01:09.566Z,7.81
2016-11-07T13:07:19.460Z,7.59
2016-11-07T13:08:48.112Z,7.78
2016-11-07T13:12:45.012Z,7.59
2016-11-07T13:13:58.897Z,7.59
2016-11-07T13:15:27.512Z,7.59
2016-11-07T13:16:41.392Z,7.64
2016-11-07T13:17:54.992Z,7.64
2016-11-07T13:21:37.524Z,7.75
2016-11-07T13:22:51.297Z,7.72
2016-11-07T13:24:05.095Z,7.62
2016-11-07T13:28:31.805Z,7.64
2016-11-07T13:31:59.155Z,7.61
2016-11-07T13:37:24.145Z,7.74
2016-11-07T13:43:33.823Z,7.75
2016-11-07T13:46:46.025Z,7.53
2016-11-07T13:48:29.769Z,7.59
2016-11-07T13:50:12.985Z,7.58
2016-11-07T13:51:27.070Z,7.58
2016-11-07T13:52:41.094Z,7.5
2016-11-07T13:53:55.049Z,7.62
2016-11-07T13:55:08.937Z,7.72
2016-11-07T13:56:22.364Z,7.84
2016-11-07T13:57:36.176Z,7.8
2016-11-07T13:58:50.054Z,7.93
2016-11-07T14:00:03.593Z,7.95
2016-11-07T14:01:17.096Z,8.02
2016-11-07T14:02:30.973Z,7.96
2016-11-07T14:03:44.821Z,8.08
2016-11-07T14:04:58.794Z,8.16
2016-11-07T14:09:24.623Z,7.99
2016-11-07T14:10:39.118Z,8.13
2016-11-07T14:11:53.218Z,8.18
2016-11-07T14:13:36.529Z,8.18
2016-11-07T14:16:48.731Z,8.18
2016-11-07T14:18:02.743Z,8.14
2016-11-07T14:19:33.729Z,8.24
2016-11-07T14:20:47.478Z,8.27
2016-11-07T14:22:22.329Z,8.16
2016-11-07T14:23:51.150Z,8.05
2016-11-07T14:25:04.764Z,8.16
2016-11-07T14:26:19.066Z,8.23
2016-11-07T14:27:32.644Z,8.16
2016-11-07T14:28:46.629Z,8.14
2016-11-07T14:30:00.608Z,8.14
2016-11-07T14:31:14.351Z,8.13
2016-11-07T14:34:11.445Z,8.13
2016-11-07T14:35:54.876Z,8.24
2016-11-07T14:37:08.886Z,8.09
2016-11-07T14:38:23.225Z,7.99
2016-11-07T14:40:21.331Z,7.88
2016-11-07T14:42:05.119Z,7.87
2016-11-07T14:47:30.154Z,7.75
2016-11-07T14:51:26.666Z,7.53
2016-11-07T14:52:55.604Z,7.59
2016-11-07T14:54:38.946Z,7.61
2016-11-07T14:56:22.393Z,7.77
2016-11-07T14:58:05.958Z,7.61
2016-11-07T14:59:20.784Z,7.66
2016-11-07T15:01:04.481Z,7.55
2016-11-07T15:02:33.225Z,7.48
2016-11-07T15:04:31.324Z,7.33
2016-11-07T15:06:16.069Z,7.28
2016-11-07T15:07:30.429Z,7.44
2016-11-07T15:08:46.416Z,7.4
2016-11-07T15:10:01.204Z,7.36
2016-11-07T15:11:14.948Z,7.37
2016-11-07T15:12:29.266Z,7.43
2016-11-07T15:13:43.409Z,7.46
2016-11-07T15:14:57.729Z,7.47
2016-11-07T15:16:26.672Z,7.44
2016-11-07T15:18:39.513Z,7.29
2016-11-07T15:24:05.077Z,7.31
2016-11-07T15:26:03.194Z,7.21
2016-11-07T15:27:17.051Z,7.13
2016-11-07T15:28:30.741Z,7.01
2016-11-07T15:29:44.979Z,6.97
2016-11-07T15:31:28.285Z,7
2016-11-07T15:32:57.276Z,7.04
2016-11-07T15:34:11.455Z,7.01
2016-11-07T15:37:23.432Z,7.08
2016-11-07T15:38:37.399Z,6.95
2016-11-07T15:39:51.916Z,7.04
2016-11-07T15:41:20.322Z,7.11
2016-11-07T15:44:47.294Z,6.86
2016-11-07T15:46:16.839Z,6.97
2016-11-07T15:47:30.579Z,6.97
2016-11-07T15:49:43.404Z,6.96
2016-11-07T15:51:56.946Z,7.04
2016-11-07T15:53:10.922Z,6.96
2016-11-07T15:54:41.649Z,7.03
2016-11-07T15:56:10.192Z,6.95
2016-11-07T16:00:23.003Z,6.9
2016-11-07T16:02:52.107Z,6.97
2016-11-07T16:05:05.305Z,7.01
2016-11-07T16:06:49.891Z,6.85
2016-11-07T16:22:51.049Z,6.57
2016-11-07T16:25:04.149Z,6.44
2016-11-07T16:26:21.387Z,6.32
2016-11-07T16:32:01.494Z,6.39
2016-11-07T16:33:16.817Z,6.31
2016-11-07T16:35:14.811Z,6.31
2016-11-07T16:38:56.639Z,6.35
2016-11-07T16:45:22.114Z,6.32
2016-11-07T16:51:32.689Z,6.46
2016-11-07T16:55:43.848Z,6.43
2016-11-07T16:57:12.808Z,6.35
2016-11-07T17:05:56.133Z,6.44
2016-11-07T17:07:41.332Z,6.46
2016-11-07T17:08:55.289Z,6.38
2016-11-07T17:13:51.162Z,6.32
2016-11-07T17:15:05.283Z,6.31
2016-11-07T17:16:19.056Z,6.32
2016-11-07T17:19:30.818Z,6.25
2016-11-07T17:20:45.077Z,6.28
2016-11-07T17:23:01.084Z,6.32
2016-11-07T17:27:39.444Z,6.46
2016-11-07T17:28:55.161Z,6.49
2016-11-07T17:43:19.771Z,6.46
2016-11-07T17:45:03.071Z,6.31
2016-11-07T17:46:16.804Z,6.41
2016-11-07T17:48:53.165Z,6.34
2016-11-07T17:50:21.522Z,6.22
2016-11-07T17:53:47.827Z,6.07
2016-11-07T17:55:01.204Z,6.13
2016-11-07T17:56:29.751Z,6.15
2016-11-07T17:57:43.091Z,6.07
2016-11-07T18:01:39.513Z,6.25
2016-11-07T18:03:07.669Z,6.2
2016-11-07T18:10:52.310Z,6.1
2016-11-07T18:16:39.632Z,6.17
2016-11-07T18:34:08.416Z,5.99
2016-11-07T19:38:34.068Z,5.88
2016-11-07T19:39:47.442Z,5.76
2016-11-07T19:41:00.915Z,5.74
2016-11-07T19:42:14.644Z,5.9
2016-11-07T19:43:27.996Z,5.98
2016-11-07T19:44:41.754Z,5.81
2016-11-07T19:45:55.202Z,5.98
2016-11-07T19:47:23.709Z,5.9
2016-11-07T19:48:37.698Z,5.87
2016-11-07T19:49:51.379Z,5.92
2016-11-07T19:51:05.089Z,5.92
2016-11-07T19:52:24.582Z,5.83
2016-11-07T19:54:23.425Z,5.87
2016-11-07T19:56:22.424Z,5.91
2016-11-07T19:58:36.673Z,5.94
2016-11-07T20:00:04.936Z,5.83
2016-11-07T20:02:04.850Z,5.83
2016-11-07T20:03:22.680Z,5.83
2016-11-07T20:04:36.050Z,6.01
2016-11-07T20:08:31.943Z,5.74
2016-11-07T20:10:15.668Z,5.97
2016-11-07T20:11:29.675Z,5.97
2016-11-07T20:12:43.067Z,5.92
2016-11-07T20:17:08.963Z,5.9
2016-11-07T20:18:22.709Z,5.8
2016-11-07T20:23:49.672Z,5.88
2016-11-07T20:25:32.699Z,5.81
2016-11-07T20:26:46.181Z,5.81
2016-11-07T20:28:14.612Z,5.91
2016-11-07T20:29:57.964Z,5.97
2016-11-07T20:31:41.424Z,5.84
2016-11-07T20:32:55.796Z,5.88
2016-11-07T20:34:24.013Z,5.87
2016-11-07T20:35:52.483Z,5.69
2016-11-07T20:37:35.620Z,5.69
2016-11-07T20:44:29.320Z,5.83
2016-11-07T20:45:43.616Z,5.92
2016-11-07T20:47:26.909Z,5.9
2016-11-07T20:55:08.187Z,5.84
2016-11-07T22:06:41.994Z,5.76
2016-11-07T22:07:56.050Z,5.88
2016-11-07T22:15:04.729Z,5.95
2016-11-07T22:17:17.603Z,5.95
2016-11-07T22:22:53.899Z,5.9
2016-11-07T22:29:18.225Z,5.76
2016-11-07T22:30:32.130Z,5.92
2016-11-07T22:31:45.877Z,5.91
2016-11-07T22:34:43.602Z,5.9
2016-11-07T22:41:07.764Z,5.73
2016-11-07T22:46:04.781Z,5.7
2016-11-07T22:47:51.230Z,5.69
2016-11-07T22:49:20.310Z,5.67
2016-11-07T22:51:33.242Z,5.51
2016-11-07T22:53:31.727Z,5.29
2016-11-07T22:54:45.850Z,5.37
2016-11-07T22:58:42.645Z,5.26
2016-11-07T23:28:19.030Z,5.38
2016-11-07T23:42:00.842Z,5.46
2016-11-07T23:43:14.680Z,5.41
2016-11-07T23:44:28.572Z,5.46
